Terminal Aerodrome Forecast
Issued by NWS Green Bay, WI

Home | Current Version | Previous Version | Graphics & Text | Print | Product List | Glossary On
Versions: 1 2 3 4 5 6 7 8 9 10 11 12 13 14 15 16 17 18 19 20 21 22 23 24 25 26 27 28 29 30 31 32 33 34 35 36 37 38 39
000
FTUS43 KGRB 302300
TAFGRB
TAF
KGRB 302333Z 3100/3124 22004KT P6SM SCT070 OVC090
     FM310800 22005KT P6SM SCT035 OVC060
      TEMPO 3109/3113 -SHSN BKN035
     FM311500 27005KT P6SM BKN035 OVC080
     FM312100 36009KT P6SM -SHSN BKN035 OVC080=

USA.gov is the U.S. government's official web portal to all federal, state and local government web resources and services.